Marshall, TX

6:25 AM CST on December 07, 2016 (GMT -0600)
Harrison County | | Change Station

Elev 358 ft 32.52 °N, 94.31 °W | Updated 10 minutes ago

Overcast
Overcast
48 °F
Feels Like 48 °F
N
0
Wind Variable Wind from North

Today
High -- | Low -- °F
--% Chance of Precip.
Yesterday
High -- | Low -- °F
Precip. -- in
Pressure 30.09 in
Visibility 2.5 miles
Clouds Mostly Cloudy 300 ft
Overcast 700 ft
Dew Point 46 °F
Humidity 93%
Rainfall 0.03 in
Snow Depth Not available.
7:06 AM 5:11 PM
First Quarter, 52% visible
METAR KASL 071215Z AUTO 00000KT 2 1/2SM BKN003 OVC007 09/08 A3009 RMK AO1 T00860076
Pressure 30.09 in
Visibility 2.5 miles
Clouds Mostly Cloudy 300 ft
Overcast 700 ft
Dew Point 46 °F
Humidity 93%
Rainfall 0.03 in
Snow Depth Not available.
7:06 AM 5:11 PM
First Quarter, 52% visible
METAR KASL 071215Z AUTO 00000KT 2 1/2SM BKN003 OVC007 09/08 A3009 RMK AO1 T00860076

10-Day Weather Forecast

Almanac

Astronomy

Dec. 07, 2016 Rise Set
Actual Time
Civil Twilight
Nautical Twilight
Astronomical Twilight
Moon
Length of Visible Light
Length of Day
Tomorrow will be .
, % of the Moon is Illuminated

Today's Extremes

State Highs State Lows

Community

WunderPhotos

Upload Photos

1,956,111 photos uploaded!

WunderBlog® & News

Nearby

Air Quality

  Air Quality AQ Index Pollutant
Not available.

Snow Depth

Station Depth Elevation

Earthquake Activity

City Distance Mag. Time & Date
Minimum magnitude displayed is 2.5.

Coastal Water Temperatures

Place Temperature

Stations

Nearby Weather Stations

Station Location Temp. Windchill Dew Point Humidity Wind Precip. Elev Updated Type
                   

Watches & Warnings

There are currently no watches in effect.